sensor_id;sensor_type;location;lat;lon;timestamp;temperature;humidity
44823;DHT22;51097;51.984;5.650;2023-06-04T00:02:18;17.20;82.60
44823;DHT22;51097;51.984;5.650;2023-06-04T00:04:43;17.10;83.40
44823;DHT22;51097;51.984;5.650;2023-06-04T00:07:09;17.10;84.40
44823;DHT22;51097;51.984;5.650;2023-06-04T00:09:34;17.10;84.60
44823;DHT22;51097;51.984;5.650;2023-06-04T00:12:00;16.90;84.80
44823;DHT22;51097;51.984;5.650;2023-06-04T00:14:26;16.90;85.20
44823;DHT22;51097;51.984;5.650;2023-06-04T00:16:51;16.90;85.30
44823;DHT22;51097;51.984;5.650;2023-06-04T00:19:17;16.80;86.20
44823;DHT22;51097;51.984;5.650;2023-06-04T00:21:42;16.80;87.40
44823;DHT22;51097;51.984;5.650;2023-06-04T00:24:08;16.70;87.40
44823;DHT22;51097;51.984;5.650;2023-06-04T00:26:33;16.70;88.20
44823;DHT22;51097;51.984;5.650;2023-06-04T00:29:00;16.60;88.40
44823;DHT22;51097;51.984;5.650;2023-06-04T00:31:26;16.60;89.50
44823;DHT22;51097;51.984;5.650;2023-06-04T00:33:52;16.60;90.00
44823;DHT22;51097;51.984;5.650;2023-06-04T00:36:18;16.50;89.30
44823;DHT22;51097;51.984;5.650;2023-06-04T00:38:43;16.50;89.90
44823;DHT22;51097;51.984;5.650;2023-06-04T00:41:09;16.40;90.40
44823;DHT22;51097;51.984;5.650;2023-06-04T00:43:35;16.40;90.60
44823;DHT22;51097;51.984;5.650;2023-06-04T00:46:01;16.40;90.90
44823;DHT22;51097;51.984;5.650;2023-06-04T00:48:29;16.30;90.60
44823;DHT22;51097;51.984;5.650;2023-06-04T00:50:55;16.40;90.90
44823;DHT22;51097;51.984;5.650;2023-06-04T00:53:23;16.40;90.70
44823;DHT22;51097;51.984;5.650;2023-06-04T00:55:50;16.30;90.90
44823;DHT22;51097;51.984;5.650;2023-06-04T00:58:16;16.30;91.20
44823;DHT22;51097;51.984;5.650;2023-06-04T01:00:43;16.20;91.40
44823;DHT22;51097;51.984;5.650;2023-06-04T01:03:14;16.20;91.60
44823;DHT22;51097;51.984;5.650;2023-06-04T01:08:11;16.10;91.70
44823;DHT22;51097;51.984;5.650;2023-06-04T01:10:37;16.10;91.50
44823;DHT22;51097;51.984;5.650;2023-06-04T01:13:02;16.00;91.60
44823;DHT22;51097;51.984;5.650;2023-06-04T01:15:28;16.10;91.80
44823;DHT22;51097;51.984;5.650;2023-06-04T01:17:59;16.00;91.80
44823;DHT22;51097;51.984;5.650;2023-06-04T01:20:36;16.00;92.00
44823;DHT22;51097;51.984;5.650;2023-06-04T01:25:43;15.90;92.70
44823;DHT22;51097;51.984;5.650;2023-06-04T01:28:12;15.80;92.60
44823;DHT22;51097;51.984;5.650;2023-06-04T01:30:41;15.80;93.00
44823;DHT22;51097;51.984;5.650;2023-06-04T01:33:12;15.80;93.40
44823;DHT22;51097;51.984;5.650;2023-06-04T01:35:38;15.80;93.10
44823;DHT22;51097;51.984;5.650;2023-06-04T01:38:04;15.60;93.70
44823;DHT22;51097;51.984;5.650;2023-06-04T01:40:30;15.60;93.70
44823;DHT22;51097;51.984;5.650;2023-06-04T01:42:57;15.60;93.90
44823;DHT22;51097;51.984;5.650;2023-06-04T01:45:24;15.60;94.40
44823;DHT22;51097;51.984;5.650;2023-06-04T01:47:50;15.50;94.30
44823;DHT22;51097;51.984;5.650;2023-06-04T01:50:16;15.60;94.30
44823;DHT22;51097;51.984;5.650;2023-06-04T01:52:43;15.60;94.50
44823;DHT22;51097;51.984;5.650;2023-06-04T01:55:11;15.60;94.40
44823;DHT22;51097;51.984;5.650;2023-06-04T01:57:40;15.60;94.80
44823;DHT22;51097;51.984;5.650;2023-06-04T02:00:08;15.50;95.00
44823;DHT22;51097;51.984;5.650;2023-06-04T02:02:35;15.40;95.00
44823;DHT22;51097;51.984;5.650;2023-06-04T02:05:02;15.40;94.80
44823;DHT22;51097;51.984;5.650;2023-06-04T02:07:27;15.50;95.20
44823;DHT22;51097;51.984;5.650;2023-06-04T02:09:53;15.50;95.50
44823;DHT22;51097;51.984;5.650;2023-06-04T02:12:19;15.30;94.50
44823;DHT22;51097;51.984;5.650;2023-06-04T02:14:44;15.30;95.10
44823;DHT22;51097;51.984;5.650;2023-06-04T02:17:14;15.30;95.30
44823;DHT22;51097;51.984;5.650;2023-06-04T02:19:44;15.10;95.80
44823;DHT22;51097;51.984;5.650;2023-06-04T02:22:15;15.20;95.70
44823;DHT22;51097;51.984;5.650;2023-06-04T02:24:40;15.30;95.90
44823;DHT22;51097;51.984;5.650;2023-06-04T02:27:09;15.30;95.10
44823;DHT22;51097;51.984;5.650;2023-06-04T02:29:34;15.20;95.10
44823;DHT22;51097;51.984;5.650;2023-06-04T02:32:01;15.10;95.90
44823;DHT22;51097;51.984;5.650;2023-06-04T02:34:26;15.00;95.80
44823;DHT22;51097;51.984;5.650;2023-06-04T02:36:52;15.00;96.30
44823;DHT22;51097;51.984;5.650;2023-06-04T02:39:21;15.00;96.50
44823;DHT22;51097;51.984;5.650;2023-06-04T02:41:46;14.90;96.50
44823;DHT22;51097;51.984;5.650;2023-06-04T02:44:12;15.00;96.70
44823;DHT22;51097;51.984;5.650;2023-06-04T02:46:38;14.90;96.90
44823;DHT22;51097;51.984;5.650;2023-06-04T02:49:04;14.80;96.50
44823;DHT22;51097;51.984;5.650;2023-06-04T02:51:30;14.80;96.90
44823;DHT22;51097;51.984;5.650;2023-06-04T02:53:55;14.70;97.20
44823;DHT22;51097;51.984;5.650;2023-06-04T02:56:21;14.70;97.20
44823;DHT22;51097;51.984;5.650;2023-06-04T02:58:51;14.70;96.90
44823;DHT22;51097;51.984;5.650;2023-06-04T03:01:19;14.70;97.40
44823;DHT22;51097;51.984;5.650;2023-06-04T03:03:45;14.70;97.50
44823;DHT22;51097;51.984;5.650;2023-06-04T03:06:11;14.80;97.20
44823;DHT22;51097;51.984;5.650;2023-06-04T03:08:39;14.60;97.80
44823;DHT22;51097;51.984;5.650;2023-06-04T03:11:05;14.70;97.80
44823;DHT22;51097;51.984;5.650;2023-06-04T03:13:31;14.70;97.90
44823;DHT22;51097;51.984;5.650;2023-06-04T03:15:56;14.50;97.90
44823;DHT22;51097;51.984;5.650;2023-06-04T03:18:26;14.60;98.30
44823;DHT22;51097;51.984;5.650;2023-06-04T03:20:53;14.50;98.20
44823;DHT22;51097;51.984;5.650;2023-06-04T03:23:19;14.50;98.50
44823;DHT22;51097;51.984;5.650;2023-06-04T03:25:45;14.50;98.90
44823;DHT22;51097;51.984;5.650;2023-06-04T03:28:10;14.40;99.00
44823;DHT22;51097;51.984;5.650;2023-06-04T03:30:36;14.40;99.10
44823;DHT22;51097;51.984;5.650;2023-06-04T03:33:02;14.30;99.10
44823;DHT22;51097;51.984;5.650;2023-06-04T03:35:28;14.30;98.90
44823;DHT22;51097;51.984;5.650;2023-06-04T03:37:53;14.30;98.30
44823;DHT22;51097;51.984;5.650;2023-06-04T03:40:19;14.20;99.20
44823;DHT22;51097;51.984;5.650;2023-06-04T03:42:45;14.20;99.30
44823;DHT22;51097;51.984;5.650;2023-06-04T03:45:10;14.20;99.40
44823;DHT22;51097;51.984;5.650;2023-06-04T03:47:37;14.10;99.80
44823;DHT22;51097;51.984;5.650;2023-06-04T03:50:03;14.10;99.90
44823;DHT22;51097;51.984;5.650;2023-06-04T03:52:29;14.00;99.90
44823;DHT22;51097;51.984;5.650;2023-06-04T03:54:54;14.00;99.90
44823;DHT22;51097;51.984;5.650;2023-06-04T03:57:20;14.10;99.90
44823;DHT22;51097;51.984;5.650;2023-06-04T03:59:46;13.90;99.90
44823;DHT22;51097;51.984;5.650;2023-06-04T04:02:11;13.90;99.90
44823;DHT22;51097;51.984;5.650;2023-06-04T04:04:37;14.00;99.90
44823;DHT22;51097;51.984;5.650;2023-06-04T04:07:02;14.00;99.90
44823;DHT22;51097;51.984;5.650;2023-06-04T04:09:28;14.00;99.90
44823;DHT22;51097;51.984;5.650;2023-06-04T04:11:53;13.90;99.90
44823;DHT22;51097;51.984;5.650;2023-06-04T04:14:19;14.00;99.90
44823;DHT22;51097;51.984;5.650;2023-06-04T04:16:44;13.90;99.90
44823;DHT22;51097;51.984;5.650;2023-06-04T04:19:10;14.00;99.90
44823;DHT22;51097;51.984;5.650;2023-06-04T04:21:37;14.00;99.90
44823;DHT22;51097;51.984;5.650;2023-06-04T04:24:03;13.90;99.90
44823;DHT22;51097;51.984;5.650;2023-06-04T04:26:29;13.90;99.90
44823;DHT22;51097;51.984;5.650;2023-06-04T04:28:55;13.90;99.90
44823;DHT22;51097;51.984;5.650;2023-06-04T04:31:24;13.90;99.90
44823;DHT22;51097;51.984;5.650;2023-06-04T04:33:50;13.90;99.90
44823;DHT22;51097;51.984;5.650;2023-06-04T04:36:16;13.90;99.90
44823;DHT22;51097;51.984;5.650;2023-06-04T04:38:46;14.00;99.90
44823;DHT22;51097;51.984;5.650;2023-06-04T04:41:20;13.90;99.90
44823;DHT22;51097;51.984;5.650;2023-06-04T04:43:46;14.00;99.90
44823;DHT22;51097;51.984;5.650;2023-06-04T04:46:12;14.00;99.90
44823;DHT22;51097;51.984;5.650;2023-06-04T04:48:37;14.10;99.90
44823;DHT22;51097;51.984;5.650;2023-06-04T04:51:04;14.10;99.90
44823;DHT22;51097;51.984;5.650;2023-06-04T04:53:29;14.10;99.90
44823;DHT22;51097;51.984;5.650;2023-06-04T04:55:55;14.20;99.90
44823;DHT22;51097;51.984;5.650;2023-06-04T04:58:21;14.20;99.90
44823;DHT22;51097;51.984;5.650;2023-06-04T05:00:46;14.30;99.90
44823;DHT22;51097;51.984;5.650;2023-06-04T05:03:13;14.40;99.90
44823;DHT22;51097;51.984;5.650;2023-06-04T05:05:38;14.50;99.90
44823;DHT22;51097;51.984;5.650;2023-06-04T05:08:05;14.50;99.90
44823;DHT22;51097;51.984;5.650;2023-06-04T05:10:30;14.50;99.90
44823;DHT22;51097;51.984;5.650;2023-06-04T05:12:59;14.50;99.90
44823;DHT22;51097;51.984;5.650;2023-06-04T05:15:26;14.60;99.90
44823;DHT22;51097;51.984;5.650;2023-06-04T05:17:52;14.60;99.90
44823;DHT22;51097;51.984;5.650;2023-06-04T05:20:18;14.60;99.90
44823;DHT22;51097;51.984;5.650;2023-06-04T05:22:46;14.70;99.90
44823;DHT22;51097;51.984;5.650;2023-06-04T05:25:11;14.80;99.90
44823;DHT22;51097;51.984;5.650;2023-06-04T05:27:37;14.80;99.90
44823;DHT22;51097;51.984;5.650;2023-06-04T05:30:04;14.90;99.90
44823;DHT22;51097;51.984;5.650;2023-06-04T05:32:29;14.90;99.90
44823;DHT22;51097;51.984;5.650;2023-06-04T05:34:58;15.10;99.90
44823;DHT22;51097;51.984;5.650;2023-06-04T05:37:24;15.10;99.90
44823;DHT22;51097;51.984;5.650;2023-06-04T05:39:52;15.20;99.90
44823;DHT22;51097;51.984;5.650;2023-06-04T05:42:18;15.20;99.90
44823;DHT22;51097;51.984;5.650;2023-06-04T05:44:44;15.30;99.90
44823;DHT22;51097;51.984;5.650;2023-06-04T05:47:09;15.30;99.90
44823;DHT22;51097;51.984;5.650;2023-06-04T05:49:35;15.50;99.90
44823;DHT22;51097;51.984;5.650;2023-06-04T05:52:01;15.60;99.90
44823;DHT22;51097;51.984;5.650;2023-06-04T05:54:28;15.60;99.90
44823;DHT22;51097;51.984;5.650;2023-06-04T05:56:53;15.80;99.90
44823;DHT22;51097;51.984;5.650;2023-06-04T05:59:19;15.90;99.90
44823;DHT22;51097;51.984;5.650;2023-06-04T06:01:45;15.90;99.90
44823;DHT22;51097;51.984;5.650;2023-06-04T06:04:10;16.10;99.90
44823;DHT22;51097;51.984;5.650;2023-06-04T06:06:37;16.00;99.90
44823;DHT22;51097;51.984;5.650;2023-06-04T06:09:03;16.10;99.90
44823;DHT22;51097;51.984;5.650;2023-06-04T06:11:28;16.20;99.90
44823;DHT22;51097;51.984;5.650;2023-06-04T06:13:54;16.40;99.90
44823;DHT22;51097;51.984;5.650;2023-06-04T06:16:20;16.50;99.90
44823;DHT22;51097;51.984;5.650;2023-06-04T06:18:45;16.50;99.90
44823;DHT22;51097;51.984;5.650;2023-06-04T06:21:11;16.60;99.90
44823;DHT22;51097;51.984;5.650;2023-06-04T06:23:36;16.60;99.90
44823;DHT22;51097;51.984;5.650;2023-06-04T06:26:02;16.70;99.90
44823;DHT22;51097;51.984;5.650;2023-06-04T06:28:28;16.90;99.90
44823;DHT22;51097;51.984;5.650;2023-06-04T06:30:54;17.00;99.90
44823;DHT22;51097;51.984;5.650;2023-06-04T06:33:20;17.10;99.90
44823;DHT22;51097;51.984;5.650;2023-06-04T06:35:56;17.30;99.90
44823;DHT22;51097;51.984;5.650;2023-06-04T06:38:24;17.30;99.90
44823;DHT22;51097;51.984;5.650;2023-06-04T06:40:57;17.60;99.90
44823;DHT22;51097;51.984;5.650;2023-06-04T06:43:22;17.70;99.90
44823;DHT22;51097;51.984;5.650;2023-06-04T06:45:48;17.80;99.90
44823;DHT22;51097;51.984;5.650;2023-06-04T06:48:13;17.90;99.90
44823;DHT22;51097;51.984;5.650;2023-06-04T06:50:39;18.00;99.90
44823;DHT22;51097;51.984;5.650;2023-06-04T06:53:04;18.20;99.90
44823;DHT22;51097;51.984;5.650;2023-06-04T06:55:30;18.30;99.90
44823;DHT22;51097;51.984;5.650;2023-06-04T06:57:56;18.50;99.90
44823;DHT22;51097;51.984;5.650;2023-06-04T07:00:21;18.60;99.70
44823;DHT22;51097;51.984;5.650;2023-06-04T07:02:48;18.70;99.70
44823;DHT22;51097;51.984;5.650;2023-06-04T07:05:14;18.80;99.90
44823;DHT22;51097;51.984;5.650;2023-06-04T07:07:41;19.00;99.90
44823;DHT22;51097;51.984;5.650;2023-06-04T07:10:07;19.00;98.80
44823;DHT22;51097;51.984;5.650;2023-06-04T07:12:32;19.20;99.00
44823;DHT22;51097;51.984;5.650;2023-06-04T07:14:58;19.40;99.10
44823;DHT22;51097;51.984;5.650;2023-06-04T07:17:23;19.70;98.90
44823;DHT22;51097;51.984;5.650;2023-06-04T07:19:49;19.80;98.40
44823;DHT22;51097;51.984;5.650;2023-06-04T07:22:14;19.90;97.80
44823;DHT22;51097;51.984;5.650;2023-06-04T07:24:43;20.30;97.40
44823;DHT22;51097;51.984;5.650;2023-06-04T07:27:12;20.50;96.40
44823;DHT22;51097;51.984;5.650;2023-06-04T07:29:38;20.80;96.40
44823;DHT22;51097;51.984;5.650;2023-06-04T07:32:04;21.10;95.80
44823;DHT22;51097;51.984;5.650;2023-06-04T07:34:29;21.30;95.20
44823;DHT22;51097;51.984;5.650;2023-06-04T07:36:55;21.70;95.00
44823;DHT22;51097;51.984;5.650;2023-06-04T07:39:21;22.00;94.30
44823;DHT22;51097;51.984;5.650;2023-06-04T07:41:47;22.30;93.40
44823;DHT22;51097;51.984;5.650;2023-06-04T07:44:12;22.60;92.10
44823;DHT22;51097;51.984;5.650;2023-06-04T07:46:38;22.90;90.70
44823;DHT22;51097;51.984;5.650;2023-06-04T07:49:03;23.20;90.70
44823;DHT22;51097;51.984;5.650;2023-06-04T07:51:29;23.70;89.50
44823;DHT22;51097;51.984;5.650;2023-06-04T07:53:54;23.80;89.80
44823;DHT22;51097;51.984;5.650;2023-06-04T07:56:20;24.20;87.90
44823;DHT22;51097;51.984;5.650;2023-06-04T07:58:46;24.60;86.70
44823;DHT22;51097;51.984;5.650;2023-06-04T08:01:12;24.90;82.90
44823;DHT22;51097;51.984;5.650;2023-06-04T08:03:37;25.20;83.20
44823;DHT22;51097;51.984;5.650;2023-06-04T08:06:03;25.30;81.10
44823;DHT22;51097;51.984;5.650;2023-06-04T08:08:29;25.60;80.20
44823;DHT22;51097;51.984;5.650;2023-06-04T08:10:55;25.90;79.70
44823;DHT22;51097;51.984;5.650;2023-06-04T08:13:20;26.20;81.00
44823;DHT22;51097;51.984;5.650;2023-06-04T08:15:46;26.60;79.30
44823;DHT22;51097;51.984;5.650;2023-06-04T08:18:11;27.10;76.20
44823;DHT22;51097;51.984;5.650;2023-06-04T08:20:37;27.30;74.90
44823;DHT22;51097;51.984;5.650;2023-06-04T08:23:03;27.70;76.00
44823;DHT22;51097;51.984;5.650;2023-06-04T08:25:28;27.80;74.50
44823;DHT22;51097;51.984;5.650;2023-06-04T08:27:55;28.00;69.70
44823;DHT22;51097;51.984;5.650;2023-06-04T08:30:21;28.30;70.50
44823;DHT22;51097;51.984;5.650;2023-06-04T08:32:47;28.40;64.60
44823;DHT22;51097;51.984;5.650;2023-06-04T08:35:12;28.60;65.70
44823;DHT22;51097;51.984;5.650;2023-06-04T08:37:38;28.90;67.20
44823;DHT22;51097;51.984;5.650;2023-06-04T08:40:04;29.20;64.60
44823;DHT22;51097;51.984;5.650;2023-06-04T08:42:39;29.40;65.90
44823;DHT22;51097;51.984;5.650;2023-06-04T08:45:10;29.60;64.60
44823;DHT22;51097;51.984;5.650;2023-06-04T08:47:37;29.80;64.10
44823;DHT22;51097;51.984;5.650;2023-06-04T08:50:07;30.10;63.10
44823;DHT22;51097;51.984;5.650;2023-06-04T08:52:35;30.10;60.10
44823;DHT22;51097;51.984;5.650;2023-06-04T08:55:01;30.20;58.70
44823;DHT22;51097;51.984;5.650;2023-06-04T08:57:27;30.30;58.90
44823;DHT22;51097;51.984;5.650;2023-06-04T08:59:55;30.40;60.50
44823;DHT22;51097;51.984;5.650;2023-06-04T09:02:21;30.70;60.70
44823;DHT22;51097;51.984;5.650;2023-06-04T09:04:47;31.00;59.40
44823;DHT22;51097;51.984;5.650;2023-06-04T09:07:13;31.30;57.50
44823;DHT22;51097;51.984;5.650;2023-06-04T09:09:40;31.40;53.50
44823;DHT22;51097;51.984;5.650;2023-06-04T09:12:14;31.40;57.70
44823;DHT22;51097;51.984;5.650;2023-06-04T09:14:40;31.70;58.20
44823;DHT22;51097;51.984;5.650;2023-06-04T09:17:06;31.90;56.80
44823;DHT22;51097;51.984;5.650;2023-06-04T09:19:31;32.30;55.20
44823;DHT22;51097;51.984;5.650;2023-06-04T09:21:59;32.70;56.00
44823;DHT22;51097;51.984;5.650;2023-06-04T09:24:45;32.90;54.90
44823;DHT22;51097;51.984;5.650;2023-06-04T09:27:19;33.20;56.40
44823;DHT22;51097;51.984;5.650;2023-06-04T09:29:55;33.40;55.00
44823;DHT22;51097;51.984;5.650;2023-06-04T09:32:23;33.50;52.80
44823;DHT22;51097;51.984;5.650;2023-06-04T09:34:49;33.70;52.80
44823;DHT22;51097;51.984;5.650;2023-06-04T09:37:15;33.90;53.40
44823;DHT22;51097;51.984;5.650;2023-06-04T09:39:43;33.90;51.80
44823;DHT22;51097;51.984;5.650;2023-06-04T09:42:08;34.10;52.70
44823;DHT22;51097;51.984;5.650;2023-06-04T09:44:43;34.10;51.70
44823;DHT22;51097;51.984;5.650;2023-06-04T09:47:11;33.90;50.60
44823;DHT22;51097;51.984;5.650;2023-06-04T09:49:43;33.90;51.40
44823;DHT22;51097;51.984;5.650;2023-06-04T09:52:09;33.90;51.80
44823;DHT22;51097;51.984;5.650;2023-06-04T09:54:38;33.90;52.60
44823;DHT22;51097;51.984;5.650;2023-06-04T09:57:19;33.90;51.00
44823;DHT22;51097;51.984;5.650;2023-06-04T09:59:46;33.70;50.50
44823;DHT22;51097;51.984;5.650;2023-06-04T10:02:12;33.90;49.30
44823;DHT22;51097;51.984;5.650;2023-06-04T10:04:42;33.90;49.90
44823;DHT22;51097;51.984;5.650;2023-06-04T10:07:11;33.90;48.00
44823;DHT22;51097;51.984;5.650;2023-06-04T10:09:39;34.00;49.50
44823;DHT22;51097;51.984;5.650;2023-06-04T10:12:13;33.80;49.10
44823;DHT22;51097;51.984;5.650;2023-06-04T10:14:50;34.10;51.20
44823;DHT22;51097;51.984;5.650;2023-06-04T10:17:17;34.30;48.70
44823;DHT22;51097;51.984;5.650;2023-06-04T10:19:47;34.60;50.90
44823;DHT22;51097;51.984;5.650;2023-06-04T10:22:14;34.70;50.40
44823;DHT22;51097;51.984;5.650;2023-06-04T10:24:40;35.00;50.90
44823;DHT22;51097;51.984;5.650;2023-06-04T10:27:06;35.10;48.70
44823;DHT22;51097;51.984;5.650;2023-06-04T10:29:36;35.30;48.70
44823;DHT22;51097;51.984;5.650;2023-06-04T10:32:02;35.30;48.70
44823;DHT22;51097;51.984;5.650;2023-06-04T10:34:28;35.10;47.30
44823;DHT22;51097;51.984;5.650;2023-06-04T10:36:55;35.30;51.30
44823;DHT22;51097;51.984;5.650;2023-06-04T10:39:31;35.50;49.30
44823;DHT22;51097;51.984;5.650;2023-06-04T10:42:04;35.60;47.20
44823;DHT22;51097;51.984;5.650;2023-06-04T10:44:48;35.70;48.50
44823;DHT22;51097;51.984;5.650;2023-06-04T10:47:25;35.80;48.70
44823;DHT22;51097;51.984;5.650;2023-06-04T10:49:52;35.80;45.60
44823;DHT22;51097;51.984;5.650;2023-06-04T10:52:18;35.80;46.00
44823;DHT22;51097;51.984;5.650;2023-06-04T10:54:46;35.80;46.60
44823;DHT22;51097;51.984;5.650;2023-06-04T10:57:17;35.60;49.00
44823;DHT22;51097;51.984;5.650;2023-06-04T10:59:55;35.70;46.40
44823;DHT22;51097;51.984;5.650;2023-06-04T11:02:21;35.70;45.30
44823;DHT22;51097;51.984;5.650;2023-06-04T11:04:47;35.40;46.00
44823;DHT22;51097;51.984;5.650;2023-06-04T11:07:23;35.50;47.70
44823;DHT22;51097;51.984;5.650;2023-06-04T11:09:49;35.40;46.30
44823;DHT22;51097;51.984;5.650;2023-06-04T11:12:15;35.50;47.90
44823;DHT22;51097;51.984;5.650;2023-06-04T11:14:41;35.60;48.40
44823;DHT22;51097;51.984;5.650;2023-06-04T11:17:18;35.80;49.10
44823;DHT22;51097;51.984;5.650;2023-06-04T11:19:44;36.40;47.90
44823;DHT22;51097;51.984;5.650;2023-06-04T11:22:12;36.60;47.10
44823;DHT22;51097;51.984;5.650;2023-06-04T11:24:38;37.00;46.50
44823;DHT22;51097;51.984;5.650;2023-06-04T11:27:04;37.20;47.60
44823;DHT22;51097;51.984;5.650;2023-06-04T11:29:30;37.40;48.10
44823;DHT22;51097;51.984;5.650;2023-06-04T11:31:55;37.50;45.40
44823;DHT22;51097;51.984;5.650;2023-06-04T11:34:28;37.10;43.70
44823;DHT22;51097;51.984;5.650;2023-06-04T11:36:55;37.10;44.60
44823;DHT22;51097;51.984;5.650;2023-06-04T11:39:21;37.00;45.90
44823;DHT22;51097;51.984;5.650;2023-06-04T11:41:47;37.20;46.60
44823;DHT22;51097;51.984;5.650;2023-06-04T11:44:14;37.10;46.30
44823;DHT22;51097;51.984;5.650;2023-06-04T11:46:41;37.10;47.50
44823;DHT22;51097;51.984;5.650;2023-06-04T11:49:11;37.10;44.90
44823;DHT22;51097;51.984;5.650;2023-06-04T11:51:38;37.10;46.90
44823;DHT22;51097;51.984;5.650;2023-06-04T11:54:04;37.30;45.90
44823;DHT22;51097;51.984;5.650;2023-06-04T11:56:29;37.10;44.70
44823;DHT22;51097;51.984;5.650;2023-06-04T11:58:55;37.00;47.20
44823;DHT22;51097;51.984;5.650;2023-06-04T12:01:21;37.20;48.40
44823;DHT22;51097;51.984;5.650;2023-06-04T12:03:48;37.10;44.90
44823;DHT22;51097;51.984;5.650;2023-06-04T12:06:18;36.80;47.00
44823;DHT22;51097;51.984;5.650;2023-06-04T12:11:32;36.40;47.80
44823;DHT22;51097;51.984;5.650;2023-06-04T12:13:59;36.40;47.40
44823;DHT22;51097;51.984;5.650;2023-06-04T12:16:26;36.50;46.10
44823;DHT22;51097;51.984;5.650;2023-06-04T12:18:52;36.70;47.20
44823;DHT22;51097;51.984;5.650;2023-06-04T12:21:23;36.80;45.70
44823;DHT22;51097;51.984;5.650;2023-06-04T12:26:31;37.10;47.20
44823;DHT22;51097;51.984;5.650;2023-06-04T12:29:10;37.30;47.40
44823;DHT22;51097;51.984;5.650;2023-06-04T12:31:36;37.40;46.60
44823;DHT22;51097;51.984;5.650;2023-06-04T12:34:02;37.70;48.90
44823;DHT22;51097;51.984;5.650;2023-06-04T12:36:28;38.00;48.70
44823;DHT22;51097;51.984;5.650;2023-06-04T12:38:59;38.20;44.00
44823;DHT22;51097;51.984;5.650;2023-06-04T12:41:29;38.30;46.90
44823;DHT22;51097;51.984;5.650;2023-06-04T12:43:55;38.50;47.20
44823;DHT22;51097;51.984;5.650;2023-06-04T12:46:22;38.70;44.70
44823;DHT22;51097;51.984;5.650;2023-06-04T12:48:51;38.80;47.10
44823;DHT22;51097;51.984;5.650;2023-06-04T12:51:17;39.10;45.20
44823;DHT22;51097;51.984;5.650;2023-06-04T12:53:43;39.20;43.50
44823;DHT22;51097;51.984;5.650;2023-06-04T12:56:10;39.20;44.90
44823;DHT22;51097;51.984;5.650;2023-06-04T12:58:35;39.20;45.80
44823;DHT22;51097;51.984;5.650;2023-06-04T13:01:01;39.40;45.80
44823;DHT22;51097;51.984;5.650;2023-06-04T13:03:27;39.40;46.00
44823;DHT22;51097;51.984;5.650;2023-06-04T13:05:53;39.50;45.20
44823;DHT22;51097;51.984;5.650;2023-06-04T13:08:22;39.50;43.40
44823;DHT22;51097;51.984;5.650;2023-06-04T13:10:49;39.80;44.40
44823;DHT22;51097;51.984;5.650;2023-06-04T13:13:15;39.90;45.00
44823;DHT22;51097;51.984;5.650;2023-06-04T13:15:42;40.20;45.30
44823;DHT22;51097;51.984;5.650;2023-06-04T13:18:08;40.50;44.50
44823;DHT22;51097;51.984;5.650;2023-06-04T13:20:35;40.70;44.60
44823;DHT22;51097;51.984;5.650;2023-06-04T13:23:00;40.60;45.40
44823;DHT22;51097;51.984;5.650;2023-06-04T13:25:26;40.50;44.50
44823;DHT22;51097;51.984;5.650;2023-06-04T13:27:54;40.50;45.30
44823;DHT22;51097;51.984;5.650;2023-06-04T13:30:19;40.10;44.10
44823;DHT22;51097;51.984;5.650;2023-06-04T13:32:45;40.20;45.20
44823;DHT22;51097;51.984;5.650;2023-06-04T13:35:10;40.40;45.90
44823;DHT22;51097;51.984;5.650;2023-06-04T13:37:36;40.50;45.10
44823;DHT22;51097;51.984;5.650;2023-06-04T13:40:01;40.70;44.90
44823;DHT22;51097;51.984;5.650;2023-06-04T13:42:27;40.90;44.60
44823;DHT22;51097;51.984;5.650;2023-06-04T13:44:52;41.10;43.60
44823;DHT22;51097;51.984;5.650;2023-06-04T13:47:18;41.20;44.30
44823;DHT22;51097;51.984;5.650;2023-06-04T13:49:44;41.20;44.80
44823;DHT22;51097;51.984;5.650;2023-06-04T13:52:09;41.10;44.20
44823;DHT22;51097;51.984;5.650;2023-06-04T13:54:35;41.20;45.80
44823;DHT22;51097;51.984;5.650;2023-06-04T13:57:03;41.20;43.20
44823;DHT22;51097;51.984;5.650;2023-06-04T13:59:29;41.40;43.80
44823;DHT22;51097;51.984;5.650;2023-06-04T14:01:56;41.40;42.70
44823;DHT22;51097;51.984;5.650;2023-06-04T14:04:22;41.40;43.90
44823;DHT22;51097;51.984;5.650;2023-06-04T14:06:47;41.40;42.20
44823;DHT22;51097;51.984;5.650;2023-06-04T14:09:13;41.40;41.70
44823;DHT22;51097;51.984;5.650;2023-06-04T14:11:39;41.40;42.30
44823;DHT22;51097;51.984;5.650;2023-06-04T14:14:05;41.30;43.90
44823;DHT22;51097;51.984;5.650;2023-06-04T14:16:31;41.40;42.60
44823;DHT22;51097;51.984;5.650;2023-06-04T14:18:56;41.20;45.20
44823;DHT22;51097;51.984;5.650;2023-06-04T14:21:22;41.40;42.40
44823;DHT22;51097;51.984;5.650;2023-06-04T14:23:48;41.20;43.20
44823;DHT22;51097;51.984;5.650;2023-06-04T14:26:14;41.20;43.50
44823;DHT22;51097;51.984;5.650;2023-06-04T14:28:43;41.20;43.00
44823;DHT22;51097;51.984;5.650;2023-06-04T14:31:08;41.10;42.20
44823;DHT22;51097;51.984;5.650;2023-06-04T14:33:34;41.20;43.30
44823;DHT22;51097;51.984;5.650;2023-06-04T14:36:02;41.20;42.70
44823;DHT22;51097;51.984;5.650;2023-06-04T14:38:28;41.20;42.50
44823;DHT22;51097;51.984;5.650;2023-06-04T14:40:54;40.90;42.70
44823;DHT22;51097;51.984;5.650;2023-06-04T14:43:22;40.80;42.10
44823;DHT22;51097;51.984;5.650;2023-06-04T14:45:48;40.80;43.30
44823;DHT22;51097;51.984;5.650;2023-06-04T14:48:13;40.80;41.20
44823;DHT22;51097;51.984;5.650;2023-06-04T14:50:39;40.90;43.30
44823;DHT22;51097;51.984;5.650;2023-06-04T14:53:05;40.80;42.80
44823;DHT22;51097;51.984;5.650;2023-06-04T14:55:33;40.80;42.30
44823;DHT22;51097;51.984;5.650;2023-06-04T14:57:59;40.80;43.50
44823;DHT22;51097;51.984;5.650;2023-06-04T15:00:25;40.90;43.20
44823;DHT22;51097;51.984;5.650;2023-06-04T15:02:50;41.00;44.10
44823;DHT22;51097;51.984;5.650;2023-06-04T15:05:16;41.20;43.60
44823;DHT22;51097;51.984;5.650;2023-06-04T15:07:41;41.40;42.70
44823;DHT22;51097;51.984;5.650;2023-06-04T15:10:07;41.30;42.40
44823;DHT22;51097;51.984;5.650;2023-06-04T15:12:34;41.10;43.50
44823;DHT22;51097;51.984;5.650;2023-06-04T15:15:01;40.90;43.00
44823;DHT22;51097;51.984;5.650;2023-06-04T15:17:27;40.90;41.80
44823;DHT22;51097;51.984;5.650;2023-06-04T15:19:52;40.80;42.00
44823;DHT22;51097;51.984;5.650;2023-06-04T15:22:18;40.70;42.30
44823;DHT22;51097;51.984;5.650;2023-06-04T15:24:43;40.80;43.00
44823;DHT22;51097;51.984;5.650;2023-06-04T15:27:09;40.80;41.90
44823;DHT22;51097;51.984;5.650;2023-06-04T15:29:35;40.80;42.00
44823;DHT22;51097;51.984;5.650;2023-06-04T15:32:00;40.80;42.90
44823;DHT22;51097;51.984;5.650;2023-06-04T15:34:26;40.80;43.30
44823;DHT22;51097;51.984;5.650;2023-06-04T15:36:51;40.90;42.60
44823;DHT22;51097;51.984;5.650;2023-06-04T15:39:17;40.80;43.00